Time;durP1;ratioP1;P1;durP2;ratioP2;P2;SDS_P1;SDS_P2;PMS_P1;PMS_P2;Temp;Humidity;BMP_temperature;BMP_pressure;BME280_temperature;BME280_humidity;BME280_pressure;Samples;Min_cycle;Max_cycle;Signal;HPM_P1;HPM_P2
2023/04/03 00:01:38;;;;;;;0.10;0.10;;;;;;;9.24;48.90;99805.41;5323102;26;33704;-83
2023/04/03 00:04:06;;;;;;;0.08;0.08;;;;;;;9.14;49.44;99809.31;5286838;26;33355;-83
2023/04/03 00:06:35;;;;;;;0.40;0.40;;;;;;;9.02;49.89;99805.38;5305358;26;33012;-84
2023/04/03 00:09:02;;;;;;;0.20;0.20;;;;;;;9.24;48.87;99808.91;5285402;26;34114;-84
2023/04/03 00:11:31;;;;;;;0.47;0.40;;;;;;;9.05;49.86;99809.66;5304566;26;32686;-83
2023/04/03 00:13:58;;;;;;;0.10;0.10;;;;;;;8.96;49.60;99806.44;5286418;26;33446;-84
2023/04/03 00:16:26;;;;;;;0.45;0.30;;;;;;;9.03;49.27;99816.78;5305106;26;34402;-84
2023/04/03 00:18:55;;;;;;;1.87;1.40;;;;;;;9.25;48.99;99817.66;5305029;26;34708;-84
2023/04/03 00:21:23;;;;;;;0.45;0.45;;;;;;;8.92;49.43;99815.38;5305765;26;34047;-83
2023/04/03 00:23:52;;;;;;;0.62;0.62;;;;;;;8.94;49.90;99818.81;5304488;26;33010;-83
2023/04/03 00:26:21;;;;;;;0.22;0.22;;;;;;;9.04;49.77;99824.63;5286924;26;33075;-83
2023/04/03 00:28:48;;;;;;;17.33;0.90;;;;;;;8.82;49.59;99824.53;5304014;26;32707;-83
2023/04/03 00:31:17;;;;;;;1.27;1.17;;;;;;;8.80;49.61;99826.37;5305289;26;34396;-84
2023/04/03 00:33:45;;;;;;;1.00;0.40;;;;;;;8.96;49.13;99827.50;5295521;26;34166;-82
2023/04/03 00:36:12;;;;;;;0.43;0.43;;;;;;;8.98;49.06;99819.59;5304870;26;33977;-84
2023/04/03 00:38:51;;;;;;;0.57;0.57;;;;;;;9.02;48.92;99829.09;5289440;26;32745;-85
2023/04/03 00:41:21;;;;;;;2.50;0.73;;;;;;;8.83;49.60;99821.00;5305755;26;33600;-84
2023/04/03 00:43:49;;;;;;;0.00;0.00;;;;;;;8.85;49.81;99819.16;5304298;26;35174;-84
2023/04/03 00:46:17;;;;;;;0.00;0.00;;;;;;;8.70;49.42;99831.09;5304700;26;32964;-84
2023/04/03 00:48:47;;;;;;;0.20;0.20;;;;;;;8.89;48.77;99830.44;5296507;26;33619;-84
2023/04/03 00:51:22;;;;;;;0.13;0.13;;;;;;;8.90;48.54;99833.03;5286224;26;32246;-84
2023/04/03 00:53:55;;;;;;;0.00;0.00;;;;;;;8.96;49.14;99834.56;5286468;26;33088;-84
2023/04/03 00:56:25;;;;;;;0.00;0.00;;;;;;;8.84;49.32;99833.25;5322485;26;33537;-84
2023/04/03 00:59:22;;;;;;;0.00;0.00;;;;;;;9.14;48.41;99840.94;5304729;26;33491;-84
2023/04/03 01:01:51;;;;;;;0.10;0.10;;;;;;;9.08;48.89;99841.16;5343078;26;34362;-84
2023/04/03 01:04:39;;;;;;;0.77;0.77;;;;;;;8.97;49.13;99836.28;5304720;26;33816;-84
2023/04/03 01:07:14;;;;;;;0.00;0.00;;;;;;;9.14;48.32;99846.22;5323056;26;33132;-84
2023/04/03 01:09:45;;;;;;;0.20;0.20;;;;;;;8.78;49.29;99843.97;5284209;26;33135;-84
2023/04/03 01:12:22;;;;;;;0.20;0.20;;;;;;;9.23;48.49;99837.97;5320707;26;34621;-84
2023/04/03 01:14:56;;;;;;;0.20;0.20;;;;;;;8.82;49.26;99840.31;5304298;26;33504;-85
2023/04/03 01:17:34;;;;;;;0.00;0.00;;;;;;;9.18;48.13;99847.81;5304699;26;33638;-84
2023/04/03 01:23:20;;;;;;;2.47;0.40;;;;;;;8.73;48.70;99835.38;5342602;26;33494;-84
2023/04/03 01:25:51;;;;;;;0.05;0.05;;;;;;;8.90;48.99;99838.28;5322435;26;33647;-84
2023/04/03 01:28:31;;;;;;;0.08;0.08;;;;;;;8.79;49.47;99843.09;5286635;26;33370;-85
2023/04/03 01:31:18;;;;;;;0.03;0.03;;;;;;;8.98;48.73;99841.50;5305197;26;34563;-85
2023/04/03 01:33:46;;;;;;;0.00;0.00;;;;;;;8.83;48.97;99842.06;5285995;26;32851;-84
2023/04/03 01:36:21;;;;;;;0.00;0.00;;;;;;;8.55;49.68;99843.97;5322753;26;33769;-85
2023/04/03 01:38:50;;;;;;;1.92;0.90;;;;;;;8.73;49.12;99845.91;5286569;26;33421;-84
2023/04/03 01:41:18;;;;;;;0.45;0.45;;;;;;;8.62;49.17;99838.41;5323088;26;34049;-84
2023/04/03 01:43:47;;;;;;;0.43;0.43;;;;;;;8.79;48.19;99845.72;5286658;26;32966;-84
2023/04/03 01:46:16;;;;;;;1.15;1.02;;;;;;;8.53;49.43;99849.25;5304459;26;33261;-85
2023/04/03 01:48:47;;;;;;;0.32;0.32;;;;;;;8.64;48.82;99856.75;5323343;26;33593;-84
2023/04/03 01:51:15;;;;;;;0.00;0.00;;;;;;;8.55;49.15;99852.72;5321791;26;32658;-84
2023/04/03 01:53:44;;;;;;;0.00;0.00;;;;;;;8.35;49.77;99850.69;5285956;26;32754;-85
2023/04/03 01:56:14;;;;;;;0.32;0.32;;;;;;;8.76;48.47;99850.22;5286948;26;34095;-85
2023/04/03 01:58:43;;;;;;;0.10;0.10;;;;;;;8.42;49.53;99860.16;5322460;26;33888;-85
2023/04/03 02:01:12;;;;;;;0.20;0.20;;;;;;;8.06;50.07;99863.97;5340823;26;33468;-84
2023/04/03 02:03:40;;;;;;;0.35;0.35;;;;;;;8.67;48.58;99864.56;5322551;26;32999;-84
2023/04/03 02:06:08;;;;;;;0.00;0.00;;;;;;;8.34;50.10;99861.28;5304279;26;33140;-84
2023/04/03 02:08:40;;;;;;;0.10;0.10;;;;;;;8.67;48.56;99861.94;5287163;26;32688;-84
2023/04/03 02:11:08;;;;;;;0.37;0.32;;;;;;;8.70;48.63;99857.44;5305373;26;32719;-84
2023/04/03 02:13:37;;;;;;;0.65;0.65;;;;;;;8.89;48.10;99855.00;5322820;26;33720;-84
2023/04/03 02:16:09;;;;;;;0.30;0.30;;;;;;;8.85;48.15;99856.03;5304823;26;34309;-84
2023/04/03 02:18:39;;;;;;;0.00;0.00;;;;;;;8.23;49.77;99852.91;5305460;26;33723;-85
2023/04/03 02:21:08;;;;;;;0.00;0.00;;;;;;;8.44;49.03;99860.09;5323705;26;33275;-85
2023/04/03 02:23:36;;;;;;;2.20;1.02;;;;;;;8.75;48.11;99859.91;5305469;26;34666;-86
2023/04/03 02:26:10;;;;;;;1.10;0.55;;;;;;;8.41;49.23;99855.81;5305409;26;33758;-85
2023/04/03 02:28:38;;;;;;;0.30;0.22;;;;;;;8.16;50.20;99865.38;5304435;26;34226;-85
2023/04/03 02:31:07;;;;;;;0.00;0.00;;;;;;;8.38;49.31;99860.31;5304738;26;33379;-85
2023/04/03 02:33:36;;;;;;;0.00;0.00;;;;;;;8.26;49.80;99858.94;5323522;26;33986;-85
2023/04/03 02:36:08;;;;;;;0.00;0.00;;;;;;;8.01;50.78;99865.88;5323394;26;32962;-85
2023/04/03 02:38:36;;;;;;;0.30;0.30;;;;;;;8.07;50.97;99866.56;5305508;26;33132;-85
2023/04/03 02:41:08;;;;;;;0.00;0.00;;;;;;;8.04;50.37;99860.53;5305348;26;33701;-85
2023/04/03 02:43:37;;;;;;;0.20;0.20;;;;;;;7.82;51.51;99861.19;5305495;26;33696;-85
2023/04/03 02:46:10;;;;;;;0.40;0.40;;;;;;;8.11;50.70;99867.31;5323673;26;34473;-85
2023/04/03 02:48:39;;;;;;;0.10;0.10;;;;;;;7.99;51.18;99862.44;5305394;26;33954;-85
2023/04/03 02:51:06;;;;;;;0.17;0.17;;;;;;;8.06;50.96;99858.69;5305000;26;33052;-85
2023/04/03 02:53:35;;;;;;;0.13;0.13;;;;;;;8.14;50.20;99857.53;5305078;26;33357;-83
2023/04/03 02:56:04;;;;;;;0.03;0.03;;;;;;;8.07;50.95;99865.66;5287520;26;33578;-84
2023/04/03 02:58:31;;;;;;;0.03;0.03;;;;;;;7.89;51.24;99862.75;5322900;26;32801;-84
2023/04/03 03:01:01;;;;;;;0.55;0.55;;;;;;;8.01;51.27;99866.75;5287479;26;32855;-84
2023/04/03 03:03:30;;;;;;;0.45;0.45;;;;;;;7.94;51.31;99863.47;5322884;26;33537;-85
2023/04/03 03:06:06;;;;;;;0.10;0.10;;;;;;;8.12;51.17;99866.41;5305496;26;34776;-84
2023/04/03 03:08:35;;;;;;;0.10;0.10;;;;;;;7.94;51.40;99871.34;5286783;26;32264;-85
2023/04/03 03:11:07;;;;;;;0.10;0.10;;;;;;;7.91;51.44;99875.84;5305388;26;33540;-85
2023/04/03 03:13:38;;;;;;;0.17;0.17;;;;;;;7.72;51.59;99880.81;5323737;26;33852;-86
2023/04/03 03:16:07;;;;;;;0.03;0.03;;;;;;;7.85;51.70;99879.53;5323211;26;33745;-86
2023/04/03 03:18:36;;;;;;;2.05;0.88;;;;;;;7.90;51.15;99874.97;5287218;26;33794;-86
2023/04/03 03:21:04;;;;;;;1.58;1.48;;;;;;;7.81;51.73;99875.25;5304326;26;33548;-85
2023/04/03 03:23:34;;;;;;;0.30;0.30;;;;;;;7.51;52.39;99886.72;5305899;26;33919;-85
2023/04/03 03:26:06;;;;;;;0.00;0.00;;;;;;;7.60;52.48;99886.44;5305053;26;33407;-86
2023/04/03 03:28:36;;;;;;;0.00;0.00;;;;;;;7.63;52.62;99886.34;5286628;26;33577;-85
2023/04/03 03:31:09;;;;;;;0.10;0.10;;;;;;;7.92;51.32;99878.41;5305515;26;34898;-85
2023/04/03 03:33:39;;;;;;;0.15;0.15;;;;;;;7.46;53.07;99886.00;5323502;26;33366;-85
2023/04/03 03:36:10;;;;;;;0.20;0.20;;;;;;;7.68;52.41;99884.44;5305671;26;34440;-85
2023/04/03 03:38:40;;;;;;;0.08;0.08;;;;;;;7.68;52.53;99887.06;5287420;26;32587;-85
2023/04/03 03:41:09;;;;;;;0.32;0.32;;;;;;;7.51;52.66;99884.94;5305144;26;32758;-85
2023/04/03 03:43:39;;;;;;;0.00;0.00;;;;;;;7.48;52.59;99886.81;5322843;26;33003;-85
2023/04/03 03:46:08;;;;;;;0.20;0.20;;;;;;;7.61;52.65;99885.53;5304881;26;33293;-84
2023/04/03 03:48:37;;;;;;;0.00;0.00;;;;;;;7.75;52.35;99887.75;5342735;26;33708;-84
2023/04/03 03:51:06;;;;;;;0.57;0.57;;;;;;;7.75;52.20;99893.84;5305113;26;34045;-83
2023/04/03 03:53:34;;;;;;;0.13;0.13;;;;;;;7.95;51.49;99890.59;5303947;26;32731;-83
2023/04/03 03:56:03;;;;;;;0.40;0.40;;;;;;;7.96;51.90;99890.53;5323663;26;33865;-83
2023/04/03 03:58:32;;;;;;;0.32;0.32;;;;;;;7.54;52.84;99891.88;5268405;26;32344;-83
2023/04/03 04:01:03;;;;;;;0.90;0.75;;;;;;;8.07;51.38;99891.97;5305534;26;34263;-84
2023/04/03 04:03:34;;;;;;;0.50;0.50;;;;;;;7.74;52.39;99889.53;5304850;26;34028;-84
2023/04/03 04:06:05;;;;;;;0.55;0.55;;;;;;;7.76;52.57;99892.94;5323399;26;33870;-83
2023/04/03 04:08:36;;;;;;;0.15;0.15;;;;;;;7.37;53.47;99884.50;5323639;26;33362;-84
2023/04/03 04:11:05;;;;;;;0.00;0.00;;;;;;;8.04;51.39;99887.69;5323269;26;34196;-85
2023/04/03 04:13:35;;;;;;;0.60;0.60;;;;;;;7.78;52.22;99883.22;5323484;26;33951;-86
2023/04/03 04:16:05;;;;;;;0.00;0.00;;;;;;;7.43;53.17;99887.78;5287230;26;33750;-86
2023/04/03 04:18:39;;;;;;;0.00;0.00;;;;;;;7.43;53.13;99890.41;5305707;26;33418;-86
2023/04/03 04:21:12;;;;;;;0.00;0.00;;;;;;;7.80;51.99;99889.31;5324933;26;33235;-86
2023/04/03 04:23:41;;;;;;;0.00;0.00;;;;;;;7.99;51.30;99886.13;5305648;26;33718;-86
2023/04/03 04:26:14;;;;;;;0.10;0.10;;;;;;;7.84;51.90;99885.69;5323352;26;34473;-86
2023/04/03 04:28:50;;;;;;;0.00;0.00;;;;;;;7.51;52.90;99891.97;5299204;26;34161;-84
2023/04/03 04:31:19;;;;;;;1.12;0.37;;;;;;;7.72;52.46;99896.56;5323223;26;34280;-83
2023/04/03 04:33:53;;;;;;;0.10;0.10;;;;;;;7.33;53.45;99894.22;5305187;26;33418;-83
2023/04/03 04:36:24;;;;;;;0.13;0.13;;;;;;;7.49;53.16;99896.41;5323335;26;33884;-83
2023/04/03 04:38:53;;;;;;;0.10;0.10;;;;;;;7.50;52.97;99895.47;5304657;26;33275;-85
2023/04/03 04:41:23;;;;;;;0.57;0.57;;;;;;;7.56;52.32;99895.31;5286792;26;32610;-85
2023/04/03 04:43:55;;;;;;;0.00;0.00;;;;;;;7.37;53.39;99901.13;5304700;26;33440;-85
2023/04/03 04:46:28;;;;;;;0.00;0.00;;;;;;;7.62;52.21;99905.66;5305821;26;34669;-85
2023/04/03 04:48:57;;;;;;;0.00;0.00;;;;;;;7.37;53.20;99901.13;5322791;26;33607;-85
2023/04/03 04:51:27;;;;;;;0.00;0.00;;;;;;;7.80;51.68;99897.22;5287170;26;34529;-83
2023/04/03 04:54:02;;;;;;;0.00;0.00;;;;;;;7.38;52.58;99894.94;5307514;26;34742;-83
2023/04/03 04:56:34;;;;;;;0.52;0.40;;;;;;;7.29;52.92;99902.25;5323365;26;34290;-84
2023/04/03 04:59:06;;;;;;;0.10;0.10;;;;;;;6.71;55.00;99915.19;5323778;26;33413;-82
2023/04/03 05:01:35;;;;;;;0.08;0.08;;;;;;;7.13;53.64;99922.81;5303945;26;34269;-83
2023/04/03 05:04:06;;;;;;;0.00;0.00;;;;;;;6.72;54.60;99910.81;5304903;26;34775;-83
2023/04/03 05:06:38;;;;;;;0.00;0.00;;;;;;;6.75;54.76;99910.75;5322845;26;33805;-83
2023/04/03 05:09:09;;;;;;;0.30;0.30;;;;;;;7.12;53.32;99911.47;5322524;26;32042;-83
2023/04/03 05:11:41;;;;;;;0.45;0.45;;;;;;;6.86;54.73;99911.31;5305735;26;34190;-83
2023/04/03 05:14:11;;;;;;;0.00;0.00;;;;;;;6.93;54.30;99918.09;5304613;26;33262;-82
2023/04/03 05:16:41;;;;;;;0.35;0.35;;;;;;;6.61;55.18;99911.09;5300529;26;32708;-82
2023/04/03 05:19:11;;;;;;;0.43;0.43;;;;;;;6.56;55.22;99912.97;5320287;26;33172;-82
2023/04/03 05:21:49;;;;;;;0.15;0.15;;;;;;;6.66;55.25;99928.44;5321310;26;33968;-82
2023/04/03 05:24:21;;;;;;;0.08;0.08;;;;;;;7.01;54.47;99912.66;5301395;26;33146;-82
2023/04/03 05:26:49;;;;;;;0.20;0.20;;;;;;;6.17;56.79;99920.91;5339356;26;34321;-82
2023/04/03 05:29:18;;;;;;;3.00;0.47;;;;;;;6.82;55.09;99917.53;5319476;26;33319;-82
2023/04/03 05:31:54;;;;;;;0.00;0.00;;;;;;;7.19;53.88;99917.41;5337160;26;32883;-84
2023/04/03 05:34:32;;;;;;;0.08;0.08;;;;;;;6.96;54.49;99922.41;5303833;26;35424;-83
2023/04/03 05:37:04;;;;;;;0.00;0.00;;;;;;;7.19;53.82;99914.78;5302177;26;33650;-82
2023/04/03 05:39:35;;;;;;;0.00;0.00;;;;;;;7.06;54.25;99914.25;5302093;26;33876;-82
2023/04/03 05:42:04;;;;;;;0.00;0.00;;;;;;;7.26;53.77;99916.31;5301839;26;33795;-81
2023/04/03 05:44:33;;;;;;;0.00;0.00;;;;;;;6.98;54.83;99913.62;5282879;26;34011;-82
2023/04/03 05:47:04;;;;;;;2.28;0.80;;;;;;;6.83;55.05;99921.88;5302881;26;34633;-81
2023/04/03 05:49:40;;;;;;;0.00;0.00;;;;;;;7.14;54.01;99917.53;5283658;26;33770;-82
2023/04/03 05:52:22;;;;;;;0.55;0.55;;;;;;;7.19;53.72;99925.28;5319276;26;33225;-82
2023/04/03 05:54:51;;;;;;;0.88;0.88;;;;;;;6.92;55.42;99925.09;5302687;26;33648;-81
2023/04/03 05:57:25;;;;;;;0.15;0.15;;;;;;;7.13;53.81;99928.09;5302865;26;33766;-82
2023/04/03 05:59:53;;;;;;;0.10;0.10;;;;;;;7.15;54.01;99934.13;5282795;26;32153;-81
2023/04/03 06:02:24;;;;;;;0.00;0.00;;;;;;;7.27;53.47;99930.31;5319628;26;33643;-81
2023/04/03 06:04:53;;;;;;;0.35;0.35;;;;;;;7.32;53.17;99929.28;5282989;26;32914;-81
2023/04/03 06:07:27;;;;;;;0.10;0.10;;;;;;;7.32;53.27;99931.06;5300765;26;34219;-82
2023/04/03 06:09:57;;;;;;;0.10;0.08;;;;;;;7.27;54.26;99930.31;5301625;26;33418;-81
2023/04/03 06:12:28;;;;;;;0.00;0.00;;;;;;;7.41;53.30;99936.03;5318325;26;33253;-81
2023/04/03 06:15:03;;;;;;;0.00;0.00;;;;;;;7.47;53.73;99935.00;5320075;26;33900;-81
2023/04/03 06:17:35;;;;;;;0.22;0.22;;;;;;;7.35;53.20;99933.56;5298802;26;32954;-82
2023/04/03 06:20:10;;;;;;;1.67;0.47;;;;;;;7.41;53.63;99929.03;5266805;26;32980;-81
2023/04/03 06:22:41;;;;;;;0.77;0.47;;;;;;;7.65;52.85;99935.31;5337112;26;33645;-81
2023/04/03 06:25:12;;;;;;;0.10;0.10;;;;;;;7.36;53.89;99941.44;5283791;26;32939;-81
2023/04/03 06:27:42;;;;;;;0.08;0.08;;;;;;;7.74;53.01;99934.19;5318847;26;33880;-81
2023/04/03 06:30:13;;;;;;;;;;;;;;;8.29;51.13;99924.56;5319600;26;33901;-83
2023/04/03 06:32:42;;;;;;;0.00;0.00;;;;;;;8.42;51.28;99925.06;5301308;26;34401;-83
2023/04/03 06:38:03;;;;;;;0.20;0.20;;;;;;;8.55;50.40;99931.66;5321976;26;33659;-82
2023/04/03 06:40:34;;;;;;;0.10;0.10;;;;;;;8.74;50.46;99937.16;5320069;26;32554;-82
2023/04/03 06:43:03;;;;;;;0.30;0.30;;;;;;;8.68;50.17;99939.97;5320205;26;34259;-83
2023/04/03 06:45:33;;;;;;;0.00;0.00;;;;;;;8.52;51.01;99952.81;5300933;26;32887;-83
2023/04/03 06:48:05;;;;;;;0.13;0.13;;;;;;;9.05;48.67;99941.38;5320664;26;33770;-82
2023/04/03 06:50:42;;;;;;;;;;;;;;;9.24;47.58;99945.91;5320936;26;33485;-83
2023/04/03 06:53:14;;;;;;;0.17;0.10;;;;;;;8.70;49.59;99949.56;5320884;26;34536;-83
2023/04/03 06:55:44;;;;;;;0.13;0.13;;;;;;;8.52;50.05;99949.31;5302253;26;33915;-82
2023/04/03 06:58:15;;;;;;;0.05;0.05;;;;;;;8.48;50.11;99956.44;5302074;26;32946;-83
2023/04/03 07:00:45;;;;;;;0.28;0.28;;;;;;;7.94;51.10;99960.75;5303388;26;34133;-83
2023/04/03 07:03:16;;;;;;;0.57;0.57;;;;;;;8.81;48.92;99958.88;5321747;26;34314;-83
2023/04/03 07:05:47;;;;;;;0.45;0.45;;;;;;;8.78;49.11;99958.97;5291099;26;336752;-83
2023/04/03 07:08:17;;;;;;;0.00;0.00;;;;;;;8.80;49.18;99958.00;5284145;26;33824;-83
2023/04/03 07:10:45;;;;;;;0.00;0.00;;;;;;;9.06;48.35;99953.63;5301733;26;33194;-82
2023/04/03 07:13:19;;;;;;;0.00;0.00;;;;;;;9.04;48.96;99955.44;5320863;26;34318;-82
2023/04/03 07:15:48;;;;;;;0.65;0.30;;;;;;;9.61;46.79;99951.62;5320322;26;33463;-82
2023/04/03 07:18:18;;;;;;;0.05;0.05;;;;;;;9.52;47.09;99963.37;5302617;26;34214;-82
2023/04/03 07:20:47;;;;;;;0.10;0.10;;;;;;;9.44;47.61;99962.78;5320013;26;33171;-82
2023/04/03 07:23:24;;;;;;;1.00;0.55;;;;;;;8.82;49.55;99961.44;5303643;26;33561;-83
2023/04/03 07:25:53;;;;;;;0.00;0.00;;;;;;;9.57;47.15;99952.66;5302080;26;34401;-82
2023/04/03 07:28:22;;;;;;;1.62;0.82;;;;;;;9.52;47.76;99959.88;5302375;26;33744;-83
2023/04/03 07:31:13;;;;;;;0.00;0.00;;;;;;;10.02;46.72;99952.69;5320479;26;34576;-83
2023/04/03 07:33:56;;;;;;;0.00;0.00;;;;;;;9.72;47.46;99944.16;5320081;26;33314;-83
2023/04/03 07:36:29;;;;;;;0.10;0.10;;;;;;;10.46;44.65;99943.03;5303722;26;33722;-83
2023/04/03 07:38:56;;;;;;;0.10;0.10;;;;;;;10.33;45.49;99951.50;5283703;26;33774;-83
2023/04/03 07:41:25;;;;;;;1.05;0.93;;;;;;;10.05;46.89;99963.13;5302130;26;34234;-83
2023/04/03 07:43:56;;;;;;;0.00;0.00;;;;;;;10.69;44.25;99954.44;5302403;26;32836;-83
2023/04/03 07:46:24;;;;;;;0.00;0.00;;;;;;;10.61;44.49;99961.81;5283738;26;33384;-83
2023/04/03 07:48:52;;;;;;;0.10;0.10;;;;;;;10.65;44.33;99973.97;5319468;26;33389;-83
2023/04/03 07:51:26;;;;;;;0.30;0.28;;;;;;;10.69;42.67;99965.00;5302996;26;33407;-83
2023/04/03 07:53:56;;;;;;;0.17;0.17;;;;;;;10.83;41.31;99965.28;5320519;26;33952;-83
2023/04/03 07:56:25;;;;;;;0.03;0.00;;;;;;;10.72;41.69;99970.97;5284347;26;34196;-83
2023/04/03 07:58:53;;;;;;;0.47;0.47;;;;;;;10.49;42.20;99971.06;5283471;26;34009;-83
2023/04/03 08:01:27;;;;;;;0.00;0.00;;;;;;;10.52;42.02;99974.44;5285354;26;32617;-83
2023/04/03 08:04:00;;;;;;;0.22;0.22;;;;;;;10.45;42.12;99972.13;5320313;26;33397;-83
2023/04/03 08:06:36;;;;;;;0.00;0.00;;;;;;;10.75;41.58;99980.56;5298920;27;33389;-82
2023/04/03 08:09:16;;;;;;;0.00;0.00;;;;;;;10.59;42.47;99980.38;5299891;26;33916;-83
2023/04/03 08:11:45;;;;;;;0.47;0.47;;;;;;;10.72;41.76;99975.41;5289040;27;33704;-83
2023/04/03 08:14:26;;;;;;;0.00;0.00;;;;;;;10.69;41.28;99981.69;5279329;27;33246;-83
2023/04/03 08:16:56;;;;;;;0.10;0.10;;;;;;;10.83;41.83;99986.41;5298086;27;34594;-82
2023/04/03 08:19:27;;;;;;;0.17;0.17;;;;;;;10.83;42.52;99986.41;5316510;27;34143;-83
2023/04/03 08:21:58;;;;;;;0.10;0.10;;;;;;;11.01;41.82;99984.75;5297654;27;34072;-85
2023/04/03 08:24:31;;;;;;;0.35;0.35;;;;;;;10.84;41.93;99988.13;5280688;27;33151;-84
2023/04/03 08:27:01;;;;;;;0.05;0.00;;;;;;;10.95;40.60;99987.66;5280385;27;33137;-83
2023/04/03 08:29:30;;;;;;;0.20;0.20;;;;;;;10.84;41.97;99989.91;5280096;27;33686;-84
2023/04/03 08:32:01;;;;;;;0.00;0.00;;;;;;;11.10;41.20;99981.72;5298336;27;34261;-84
2023/04/03 08:37:05;;;;;;;0.10;0.10;;;;;;;11.44;40.02;99980.25;5279463;27;33427;-84
2023/04/03 08:39:35;;;;;;;0.30;0.30;;;;;;;11.26;40.98;99992.50;5278964;27;33071;-84
2023/04/03 08:42:14;;;;;;;0.00;0.00;;;;;;;11.51;40.09;99990.50;5279528;27;33831;-84
2023/04/03 08:44:49;;;;;;;0.00;0.00;;;;;;;11.60;40.21;99986.59;5297326;27;34063;-83
2023/04/03 08:47:24;;;;;;;0.85;0.85;;;;;;;11.72;39.30;99980.72;5297583;27;33770;-83
2023/04/03 08:49:57;;;;;;;0.28;0.20;;;;;;;11.77;38.34;99976.09;5297801;27;33523;-83
2023/04/03 08:52:37;;;;;;;0.00;0.00;;;;;;;11.60;38.86;99983.09;5278807;27;32772;-84
2023/04/03 08:55:15;;;;;;;0.00;0.00;;;;;;;11.65;39.90;99983.72;5297215;27;33411;-83
2023/04/03 08:57:48;;;;;;;0.10;0.05;;;;;;;11.63;39.62;99988.22;5279105;26;34111;-83
2023/04/03 09:00:24;;;;;;;2.15;0.50;;;;;;;11.70;39.27;99985.22;5298444;27;33566;-84
2023/04/03 09:02:55;;;;;;;0.00;0.00;;;;;;;11.89;39.47;99987.94;5279387;27;33747;-84
2023/04/03 09:06:00;;;;;;;0.63;0.23;;;;;;;12.08;38.94;99977.34;5282962;26;33042;-84
2023/04/03 09:08:34;;;;;;;0.00;0.00;;;;;;;12.03;38.60;99980.22;5274212;26;34169;-84
2023/04/03 09:11:51;;;;;;;0.00;0.00;;;;;;;12.33;38.67;99982.34;5283572;26;33598;-83
2023/04/03 09:14:29;;;;;;;0.00;0.00;;;;;;;12.80;37.35;99984.44;5264303;26;33764;-84
2023/04/03 09:17:03;;;;;;;0.00;0.00;;;;;;;12.67;35.94;99980.69;5282999;26;33353;-83
2023/04/03 09:19:47;;;;;;;0.10;0.10;;;;;;;12.28;37.56;99989.62;5339711;26;34719;-84
2023/04/03 09:22:25;;;;;;;0.00;0.00;;;;;;;12.35;38.60;99991.06;5319768;26;33856;-84
2023/04/03 09:25:08;;;;;;;0.75;0.75;;;;;;;12.68;35.61;99982.44;5301776;26;33703;-84
2023/04/03 09:27:38;;;;;;;0.00;0.00;;;;;;;12.49;36.52;99983.31;5301756;26;33619;-84
2023/04/03 09:30:17;;;;;;;0.00;0.00;;;;;;;12.51;36.00;99991.19;5300642;26;33931;-84
2023/04/03 09:32:47;;;;;;;0.10;0.10;;;;;;;12.61;36.60;99981.00;5301470;26;34916;-86
2023/04/03 09:35:27;;;;;;;0.20;0.20;;;;;;;11.91;38.11;99990.50;5283251;26;33210;-85
2023/04/03 09:38:11;;;;;;;0.00;0.00;;;;;;;12.17;37.50;99986.66;5287968;26;32999;-85
2023/04/03 09:40:48;;;;;;;0.00;0.00;;;;;;;12.15;35.90;99991.13;5319637;26;33469;-85
2023/04/03 09:43:29;;;;;;;0.20;0.20;;;;;;;12.24;35.49;99993.34;5285598;26;32623;-85
2023/04/03 09:46:28;;;;;;;0.55;0.47;;;;;;;12.35;35.90;99990.22;5285085;26;33601;-85
2023/04/03 09:49:03;;;;;;;0.00;0.00;;;;;;;12.18;35.88;99985.72;5283615;26;33617;-85
2023/04/03 09:51:40;;;;;;;0.10;0.10;;;;;;;12.10;35.65;99985.22;5304057;26;33664;-85
2023/04/03 09:54:32;;;;;;;0.00;0.00;;;;;;;12.32;35.03;99982.41;5319853;26;34050;-85
2023/04/03 09:57:11;;;;;;;0.00;0.00;;;;;;;12.27;36.72;99982.62;5302059;26;33931;-84
2023/04/03 10:00:04;;;;;;;0.00;0.00;;;;;;;12.58;35.86;99976.72;5283419;26;34044;-87
2023/04/03 10:02:39;;;;;;;0.00;0.00;;;;;;;12.89;36.49;99970.75;5303108;26;33647;-83
2023/04/03 10:05:35;;;;;;;0.00;0.00;;;;;;;13.04;35.53;99967.31;5282758;26;34460;-85
2023/04/03 10:08:13;;;;;;;20.08;0.93;;;;;;;13.27;33.89;99971.47;5300663;26;32927;-84
2023/04/03 10:10:45;;;;;;;0.00;0.00;;;;;;;13.26;34.12;99972.41;5339166;26;33613;-83
2023/04/03 10:13:19;;;;;;;0.00;0.00;;;;;;;12.99;36.67;99965.81;5283521;26;33868;-83
2023/04/03 10:15:56;;;;;;;0.45;0.45;;;;;;;13.21;36.39;99970.91;5319370;26;33901;-83
2023/04/03 10:18:33;;;;;;;0.73;0.57;;;;;;;13.08;36.08;99966.22;5301369;26;32819;-83
2023/04/03 10:21:13;;;;;;;0.00;0.00;;;;;;;13.44;36.64;99964.44;5303013;26;34173;-83
2023/04/03 10:24:14;;;;;;;3.10;1.27;;;;;;;13.38;34.11;99964.72;5305481;26;33410;-83
2023/04/03 10:26:58;;;;;;;0.15;0.15;;;;;;;13.98;33.72;99957.91;5319664;26;33908;-83
2023/04/03 10:29:52;;;;;;;0.10;0.10;;;;;;;13.66;34.63;99970.28;5284378;26;32852;-83
2023/04/03 10:32:46;;;;;;;0.00;0.00;;;;;;;13.91;32.85;99966.28;5303636;26;33725;-83
2023/04/03 10:35:21;;;;;;;0.10;0.10;;;;;;;13.67;33.70;99979.09;5281780;26;33784;-83
2023/04/03 10:38:00;;;;;;;0.00;0.00;;;;;;;13.53;34.13;99971.88;5301296;26;33788;-84
2023/04/03 10:40:50;;;;;;;0.30;0.30;;;;;;;13.30;34.03;99966.00;5301812;26;33288;-83
2023/04/03 10:43:34;;;;;;;0.20;0.20;;;;;;;12.81;35.69;99963.16;5301887;26;34341;-83
2023/04/03 10:46:42;;;;;;;0.00;0.00;;;;;;;12.60;36.68;99961.59;5302132;26;33104;-83
2023/04/03 10:49:36;;;;;;;1.37;0.20;;;;;;;12.91;34.95;99962.69;5316610;26;35074;-83
2023/04/03 10:52:29;;;;;;;0.00;0.00;;;;;;;13.23;34.57;99961.09;5284283;26;33992;-83
2023/04/03 10:55:15;;;;;;;0.00;0.00;;;;;;;12.92;34.64;99960.00;5321584;26;33865;-83
2023/04/03 10:57:48;;;;;;;0.00;0.00;;;;;;;12.67;36.46;99965.66;5305290;26;33306;-82
2023/04/03 11:00:20;;;;;;;0.35;0.35;;;;;;;12.76;35.10;99959.03;5285426;26;33293;-83
2023/04/03 11:02:55;;;;;;;0.00;0.00;;;;;;;12.83;35.80;99963.09;5286733;26;32682;-82
2023/04/03 11:05:41;;;;;;;0.00;0.00;;;;;;;13.07;34.48;99963.66;5323747;26;33455;-83
2023/04/03 11:08:31;;;;;;;0.20;0.20;;;;;;;12.93;34.94;99967.00;5323644;26;35519;-82
2023/04/03 11:11:08;;;;;;;0.00;0.00;;;;;;;12.84;33.91;99963.97;5322712;26;34100;-83
2023/04/03 11:14:01;;;;;;;0.00;0.00;;;;;;;12.73;34.48;99961.84;5305200;26;33181;-83
2023/04/03 11:16:34;;;;;;;0.00;0.00;;;;;;;12.59;35.25;99964.34;5304436;26;33653;-83
2023/04/03 11:19:35;;;;;;;9.43;2.00;;;;;;;12.65;34.89;99953.44;5311243;26;34026;-84
2023/04/03 11:22:13;;;;;;;0.00;0.00;;;;;;;12.60;35.34;99960.75;5304952;26;33306;-83
2023/04/03 11:24:54;;;;;;;0.00;0.00;;;;;;;12.62;35.17;99958.88;5287779;26;32808;-85
2023/04/03 11:27:24;;;;;;;0.47;0.40;;;;;;;12.34;35.24;99954.91;5304249;26;33634;-83
2023/04/03 11:29:56;;;;;;;0.10;0.10;;;;;;;12.32;35.58;99951.50;5305217;26;35557;-82
2023/04/03 11:32:37;;;;;;;9.02;2.17;;;;;;;12.67;34.10;99943.59;5286786;26;34752;-83
2023/04/03 11:35:13;;;;;;;4.97;1.62;;;;;;;12.52;35.61;99946.06;5342718;26;33764;-84
2023/04/03 11:37:54;;;;;;;0.00;0.00;;;;;;;12.25;35.88;99937.72;5287466;26;34024;-83
2023/04/03 11:40:29;;;;;;;0.00;0.00;;;;;;;12.72;34.32;99930.97;5303870;26;33416;-84
2023/04/03 11:43:09;;;;;;;0.30;0.30;;;;;;;12.84;33.96;99925.06;5304933;26;34199;-84
2023/04/03 11:45:49;;;;;;;0.30;0.30;;;;;;;12.59;35.23;99936.06;5323138;26;32956;-84
2023/04/03 11:48:18;;;;;;;0.70;0.55;;;;;;;12.79;33.95;99932.41;5303496;26;32854;-84
2023/04/03 11:51:00;;;;;;;0.22;0.22;;;;;;;12.93;33.54;99929.91;5324695;26;33308;-83
2023/04/03 11:53:34;;;;;;;0.00;0.00;;;;;;;12.84;34.68;99927.72;5304536;26;34929;-82
2023/04/03 11:56:25;;;;;;;0.85;0.85;;;;;;;12.97;33.29;99925.31;5304561;26;32879;-82
2023/04/03 11:59:04;;;;;;;0.00;0.00;;;;;;;12.84;35.17;99935.66;5324654;26;33931;-84
2023/04/03 12:01:56;;;;;;;0.00;0.00;;;;;;;12.93;33.75;99937.84;5323107;26;34031;-83
2023/04/03 12:04:32;;;;;;;0.00;0.00;;;;;;;12.95;34.20;99938.63;5288364;26;33331;-82
2023/04/03 12:07:17;;;;;;;0.00;0.00;;;;;;;12.70;34.41;99925.75;5322801;26;33647;-82
2023/04/03 12:09:46;;;;;;;0.65;0.37;;;;;;;12.71;33.09;99939.87;5305275;26;34360;-82
2023/04/03 12:12:29;;;;;;;0.00;0.00;;;;;;;12.55;33.81;99934.50;5323415;26;33719;-82
2023/04/03 12:15:24;;;;;;;0.00;0.00;;;;;;;12.40;34.53;99937.91;5323034;26;33510;-83
2023/04/03 12:17:55;;;;;;;1.25;1.02;;;;;;;12.35;34.54;99922.22;5301852;26;31992;-83
2023/04/03 12:23:29;;;;;;;0.20;0.20;;;;;;;12.63;34.44;99926.13;5319361;26;34323;-82